sensor_id;sensor_type;location;lat;lon;timestamp;pressure;altitude;pressure_sealevel;temperature;humidity
8717;BME280;4395;48.554;8.820;2023-07-13T00:00:22;95947.88;;;18.70;100.00
8717;BME280;4395;48.554;8.820;2023-07-13T00:02:25;95953.94;;;18.67;100.00
8717;BME280;4395;48.554;8.820;2023-07-13T00:04:29;95945.91;;;18.29;100.00
8717;BME280;4395;48.554;8.820;2023-07-13T00:06:36;95937.59;;;18.81;100.00
8717;BME280;4395;48.554;8.820;2023-07-13T00:08:38;95944.13;;;18.39;100.00
8717;BME280;4395;48.554;8.820;2023-07-13T00:10:41;95933.88;;;18.90;99.62
8717;BME280;4395;48.554;8.820;2023-07-13T00:12:44;95939.03;;;19.28;97.13
8717;BME280;4395;48.554;8.820;2023-07-13T00:14:48;95945.16;;;19.47;95.42
8717;BME280;4395;48.554;8.820;2023-07-13T00:16:52;95929.31;;;19.00;97.29
8717;BME280;4395;48.554;8.820;2023-07-13T00:18:56;95929.22;;;19.41;94.16
8717;BME280;4395;48.554;8.820;2023-07-13T00:21:01;95922.97;;;19.40;94.32
8717;BME280;4395;48.554;8.820;2023-07-13T00:23:08;95923.03;;;19.49;94.51
8717;BME280;4395;48.554;8.820;2023-07-13T00:25:12;95923.13;;;19.21;94.69
8717;BME280;4395;48.554;8.820;2023-07-13T00:27:15;95919.41;;;19.53;92.57
8717;BME280;4395;48.554;8.820;2023-07-13T00:29:20;95920.69;;;19.20;94.94
8717;BME280;4395;48.554;8.820;2023-07-13T00:31:23;95918.94;;;18.74;97.65
8717;BME280;4395;48.554;8.820;2023-07-13T00:33:27;95915.75;;;19.22;95.35
8717;BME280;4395;48.554;8.820;2023-07-13T00:35:31;95922.50;;;19.24;93.71
8717;BME280;4395;48.554;8.820;2023-07-13T00:37:34;95900.84;;;19.06;93.49
8717;BME280;4395;48.554;8.820;2023-07-13T00:39:39;95931.56;;;19.34;93.32
8717;BME280;4395;48.554;8.820;2023-07-13T00:41:42;95897.06;;;18.79;95.10
8717;BME280;4395;48.554;8.820;2023-07-13T00:43:45;95927.72;;;19.35;93.84
8717;BME280;4395;48.554;8.820;2023-07-13T00:46:12;95931.41;;;19.16;94.80
8717;BME280;4395;48.554;8.820;2023-07-13T00:48:18;95914.50;;;18.92;96.25
8717;BME280;4395;48.554;8.820;2023-07-13T00:50:22;95918.50;;;18.26;99.67
8717;BME280;4395;48.554;8.820;2023-07-13T00:52:26;95918.81;;;18.52;98.11
8717;BME280;4395;48.554;8.820;2023-07-13T00:54:32;95924.03;;;19.17;94.91
8717;BME280;4395;48.554;8.820;2023-07-13T00:56:37;95934.44;;;19.15;93.67
8717;BME280;4395;48.554;8.820;2023-07-13T00:58:40;95897.34;;;18.50;94.08
8717;BME280;4395;48.554;8.820;2023-07-13T01:00:42;95926.38;;;19.10;93.37
8717;BME280;4395;48.554;8.820;2023-07-13T01:02:45;95921.66;;;18.47;97.99
8717;BME280;4395;48.554;8.820;2023-07-13T01:04:48;95922.16;;;18.49;98.16
8717;BME280;4395;48.554;8.820;2023-07-13T01:06:52;95912.06;;;18.36;98.65
8717;BME280;4395;48.554;8.820;2023-07-13T01:08:56;95932.47;;;18.66;96.75
8717;BME280;4395;48.554;8.820;2023-07-13T01:11:01;95914.22;;;18.66;95.05
8717;BME280;4395;48.554;8.820;2023-07-13T01:13:05;95931.31;;;18.25;98.53
8717;BME280;4395;48.554;8.820;2023-07-13T01:15:37;95937.53;;;17.93;100.00
8717;BME280;4395;48.554;8.820;2023-07-13T01:17:40;95933.94;;;17.98;100.00
8717;BME280;4395;48.554;8.820;2023-07-13T01:19:45;95922.25;;;18.30;100.00
8717;BME280;4395;48.554;8.820;2023-07-13T01:21:52;95942.53;;;18.19;99.67
8717;BME280;4395;48.554;8.820;2023-07-13T01:23:55;95933.72;;;18.41;100.00
8717;BME280;4395;48.554;8.820;2023-07-13T01:25:59;95934.19;;;18.61;95.49
8717;BME280;4395;48.554;8.820;2023-07-13T01:28:04;95928.56;;;19.21;93.89
8717;BME280;4395;48.554;8.820;2023-07-13T01:30:08;95936.03;;;18.34;96.98
8717;BME280;4395;48.554;8.820;2023-07-13T01:32:18;95931.63;;;18.38;97.68
8717;BME280;4395;48.554;8.820;2023-07-13T01:34:27;95924.72;;;17.61;100.00
8717;BME280;4395;48.554;8.820;2023-07-13T01:36:30;95927.97;;;18.28;98.96
8717;BME280;4395;48.554;8.820;2023-07-13T01:38:35;95908.44;;;18.26;96.31
8717;BME280;4395;48.554;8.820;2023-07-13T01:40:38;95938.66;;;18.39;95.86
8717;BME280;4395;48.554;8.820;2023-07-13T01:42:41;95933.41;;;18.28;96.41
8717;BME280;4395;48.554;8.820;2023-07-13T01:44:44;95938.56;;;18.44;95.11
8717;BME280;4395;48.554;8.820;2023-07-13T01:46:47;95935.19;;;18.19;98.48
8717;BME280;4395;48.554;8.820;2023-07-13T01:48:51;95942.50;;;18.05;97.31
8717;BME280;4395;48.554;8.820;2023-07-13T01:50:54;95942.84;;;18.17;97.54
8717;BME280;4395;48.554;8.820;2023-07-13T01:52:57;95929.63;;;18.57;96.09
8717;BME280;4395;48.554;8.820;2023-07-13T01:55:01;95936.56;;;19.04;93.60
8717;BME280;4395;48.554;8.820;2023-07-13T01:57:04;95947.88;;;18.98;92.71
8717;BME280;4395;48.554;8.820;2023-07-13T01:59:08;95944.56;;;19.37;90.69
8717;BME280;4395;48.554;8.820;2023-07-13T02:01:11;95942.59;;;19.65;89.29
8717;BME280;4395;48.554;8.820;2023-07-13T02:03:14;95947.47;;;19.54;89.55
8717;BME280;4395;48.554;8.820;2023-07-13T02:05:19;95951.28;;;19.89;87.69
8717;BME280;4395;48.554;8.820;2023-07-13T02:07:22;95939.56;;;19.66;87.10
8717;BME280;4395;48.554;8.820;2023-07-13T02:09:25;95956.34;;;19.10;92.30
8717;BME280;4395;48.554;8.820;2023-07-13T02:11:30;95949.25;;;19.22;91.58
8717;BME280;4395;48.554;8.820;2023-07-13T02:13:34;95947.66;;;19.08;89.93
8717;BME280;4395;48.554;8.820;2023-07-13T02:15:38;95953.81;;;18.12;96.54
8717;BME280;4395;48.554;8.820;2023-07-13T02:17:42;95950.28;;;17.60;100.00
8717;BME280;4395;48.554;8.820;2023-07-13T02:19:45;95944.94;;;17.55;100.00
8717;BME280;4395;48.554;8.820;2023-07-13T02:21:48;95946.09;;;17.30;100.00
8717;BME280;4395;48.554;8.820;2023-07-13T02:23:51;95948.63;;;16.84;100.00
8717;BME280;4395;48.554;8.820;2023-07-13T02:25:55;95954.72;;;16.76;100.00
8717;BME280;4395;48.554;8.820;2023-07-13T02:28:00;95959.72;;;16.64;100.00
8717;BME280;4395;48.554;8.820;2023-07-13T02:30:03;95959.19;;;16.62;100.00
8717;BME280;4395;48.554;8.820;2023-07-13T02:32:07;95962.84;;;17.38;100.00
8717;BME280;4395;48.554;8.820;2023-07-13T02:34:10;95957.66;;;16.80;100.00
8717;BME280;4395;48.554;8.820;2023-07-13T02:36:13;95957.28;;;16.86;100.00
8717;BME280;4395;48.554;8.820;2023-07-13T02:38:15;95962.47;;;17.07;100.00
8717;BME280;4395;48.554;8.820;2023-07-13T02:40:18;95964.47;;;17.20;100.00
8717;BME280;4395;48.554;8.820;2023-07-13T02:42:21;95962.38;;;16.69;100.00
8717;BME280;4395;48.554;8.820;2023-07-13T02:44:25;95958.47;;;16.80;100.00
8717;BME280;4395;48.554;8.820;2023-07-13T02:46:27;95964.72;;;16.99;100.00
8717;BME280;4395;48.554;8.820;2023-07-13T02:48:30;95963.94;;;16.75;100.00
8717;BME280;4395;48.554;8.820;2023-07-13T02:50:33;95965.81;;;16.98;100.00
8717;BME280;4395;48.554;8.820;2023-07-13T02:52:35;95961.81;;;16.72;100.00
8717;BME280;4395;48.554;8.820;2023-07-13T02:54:39;95967.78;;;16.45;100.00
8717;BME280;4395;48.554;8.820;2023-07-13T02:56:42;95973.28;;;16.11;100.00
8717;BME280;4395;48.554;8.820;2023-07-13T02:58:46;95973.94;;;15.98;100.00
8717;BME280;4395;48.554;8.820;2023-07-13T03:00:51;95965.25;;;16.54;100.00
8717;BME280;4395;48.554;8.820;2023-07-13T03:02:54;95966.06;;;16.54;100.00
8717;BME280;4395;48.554;8.820;2023-07-13T03:05:00;95961.19;;;16.27;100.00
8717;BME280;4395;48.554;8.820;2023-07-13T03:07:03;95956.19;;;16.87;100.00
8717;BME280;4395;48.554;8.820;2023-07-13T03:09:10;95953.34;;;16.97;100.00
8717;BME280;4395;48.554;8.820;2023-07-13T03:11:20;95961.34;;;16.65;100.00
8717;BME280;4395;48.554;8.820;2023-07-13T03:13:29;95962.25;;;16.55;100.00
8717;BME280;4395;48.554;8.820;2023-07-13T03:15:32;95955.06;;;17.12;100.00
8717;BME280;4395;48.554;8.820;2023-07-13T03:17:37;95970.16;;;16.99;100.00
8717;BME280;4395;48.554;8.820;2023-07-13T03:19:40;95973.16;;;16.50;100.00
8717;BME280;4395;48.554;8.820;2023-07-13T03:21:43;95977.56;;;16.17;100.00
8717;BME280;4395;48.554;8.820;2023-07-13T03:23:46;95950.41;;;16.22;100.00
8717;BME280;4395;48.554;8.820;2023-07-13T03:25:49;95966.94;;;16.97;100.00
8717;BME280;4395;48.554;8.820;2023-07-13T03:27:51;95971.94;;;16.61;100.00
8717;BME280;4395;48.554;8.820;2023-07-13T03:29:55;95967.31;;;17.10;100.00
8717;BME280;4395;48.554;8.820;2023-07-13T03:31:58;95967.25;;;17.33;100.00
8717;BME280;4395;48.554;8.820;2023-07-13T03:34:03;95969.19;;;16.90;100.00
8717;BME280;4395;48.554;8.820;2023-07-13T03:36:06;95969.41;;;16.46;100.00
8717;BME280;4395;48.554;8.820;2023-07-13T03:38:10;95960.50;;;17.12;100.00
8717;BME280;4395;48.554;8.820;2023-07-13T03:40:14;95968.19;;;17.24;100.00
8717;BME280;4395;48.554;8.820;2023-07-13T03:42:18;95978.25;;;17.23;100.00
8717;BME280;4395;48.554;8.820;2023-07-13T03:44:21;95977.22;;;17.19;100.00
8717;BME280;4395;48.554;8.820;2023-07-13T03:46:28;95978.41;;;17.13;100.00
8717;BME280;4395;48.554;8.820;2023-07-13T03:48:31;95973.91;;;17.03;100.00
8717;BME280;4395;48.554;8.820;2023-07-13T03:50:35;95980.97;;;16.81;100.00
8717;BME280;4395;48.554;8.820;2023-07-13T03:52:38;95990.78;;;17.00;100.00
8717;BME280;4395;48.554;8.820;2023-07-13T03:54:41;95986.22;;;16.72;100.00
8717;BME280;4395;48.554;8.820;2023-07-13T03:56:44;95992.75;;;16.71;100.00
8717;BME280;4395;48.554;8.820;2023-07-13T03:58:48;95990.63;;;16.39;100.00
8717;BME280;4395;48.554;8.820;2023-07-13T04:00:53;95995.56;;;16.61;100.00
8717;BME280;4395;48.554;8.820;2023-07-13T04:02:56;95992.75;;;16.71;100.00
8717;BME280;4395;48.554;8.820;2023-07-13T04:04:59;95998.25;;;16.66;100.00
8717;BME280;4395;48.554;8.820;2023-07-13T04:07:04;95987.75;;;15.62;100.00
8717;BME280;4395;48.554;8.820;2023-07-13T04:09:07;95990.44;;;15.67;100.00
8717;BME280;4395;48.554;8.820;2023-07-13T04:11:10;96007.78;;;15.56;100.00
8717;BME280;4395;48.554;8.820;2023-07-13T04:13:13;96008.31;;;16.02;100.00
8717;BME280;4395;48.554;8.820;2023-07-13T04:15:16;96008.44;;;15.38;100.00
8717;BME280;4395;48.554;8.820;2023-07-13T04:17:19;96003.84;;;15.38;100.00
8717;BME280;4395;48.554;8.820;2023-07-13T04:19:21;96007.81;;;15.61;100.00
8717;BME280;4395;48.554;8.820;2023-07-13T04:21:24;96002.00;;;16.12;100.00
8717;BME280;4395;48.554;8.820;2023-07-13T04:23:29;96004.06;;;16.78;100.00
8717;BME280;4395;48.554;8.820;2023-07-13T04:25:31;95993.75;;;17.23;100.00
8717;BME280;4395;48.554;8.820;2023-07-13T04:27:34;96005.91;;;17.68;100.00
8717;BME280;4395;48.554;8.820;2023-07-13T04:29:37;96000.78;;;17.24;100.00
8717;BME280;4395;48.554;8.820;2023-07-13T04:31:39;96005.06;;;16.87;100.00
8717;BME280;4395;48.554;8.820;2023-07-13T04:33:42;96004.38;;;16.48;100.00
8717;BME280;4395;48.554;8.820;2023-07-13T04:35:49;96011.09;;;16.26;100.00
8717;BME280;4395;48.554;8.820;2023-07-13T04:38:09;96007.41;;;16.12;100.00
8717;BME280;4395;48.554;8.820;2023-07-13T04:40:14;96000.38;;;16.11;100.00
8717;BME280;4395;48.554;8.820;2023-07-13T04:42:17;96002.34;;;16.34;100.00
8717;BME280;4395;48.554;8.820;2023-07-13T04:44:20;96002.56;;;16.09;100.00
8717;BME280;4395;48.554;8.820;2023-07-13T04:46:22;96012.56;;;16.14;100.00
8717;BME280;4395;48.554;8.820;2023-07-13T04:48:25;96018.22;;;16.17;100.00
8717;BME280;4395;48.554;8.820;2023-07-13T04:50:28;96011.13;;;16.21;100.00
8717;BME280;4395;48.554;8.820;2023-07-13T04:52:31;96015.75;;;16.50;100.00
8717;BME280;4395;48.554;8.820;2023-07-13T04:54:34;96016.84;;;16.49;100.00
8717;BME280;4395;48.554;8.820;2023-07-13T04:56:38;96004.84;;;16.55;100.00
8717;BME280;4395;48.554;8.820;2023-07-13T04:58:41;96023.31;;;16.53;100.00
8717;BME280;4395;48.554;8.820;2023-07-13T05:00:43;96028.59;;;16.39;100.00
8717;BME280;4395;48.554;8.820;2023-07-13T05:02:46;96032.38;;;16.72;100.00
8717;BME280;4395;48.554;8.820;2023-07-13T05:04:48;96003.13;;;16.64;100.00
8717;BME280;4395;48.554;8.820;2023-07-13T05:06:51;96024.84;;;16.88;100.00
8717;BME280;4395;48.554;8.820;2023-07-13T05:08:54;96020.56;;;17.06;100.00
8717;BME280;4395;48.554;8.820;2023-07-13T05:10:59;96021.97;;;17.03;100.00
8717;BME280;4395;48.554;8.820;2023-07-13T05:13:03;96014.31;;;16.57;100.00
8717;BME280;4395;48.554;8.820;2023-07-13T05:15:07;96029.00;;;16.80;100.00
8717;BME280;4395;48.554;8.820;2023-07-13T05:17:10;96027.91;;;17.05;100.00
8717;BME280;4395;48.554;8.820;2023-07-13T05:19:12;96034.19;;;17.24;100.00
8717;BME280;4395;48.554;8.820;2023-07-13T05:21:15;96035.09;;;17.39;100.00
8717;BME280;4395;48.554;8.820;2023-07-13T05:23:18;96038.03;;;17.42;100.00
8717;BME280;4395;48.554;8.820;2023-07-13T05:25:20;96040.75;;;17.42;100.00
8717;BME280;4395;48.554;8.820;2023-07-13T05:27:23;96032.75;;;17.51;100.00
8717;BME280;4395;48.554;8.820;2023-07-13T05:29:26;96039.00;;;17.51;100.00
8717;BME280;4395;48.554;8.820;2023-07-13T05:31:29;96044.56;;;17.60;100.00
8717;BME280;4395;48.554;8.820;2023-07-13T05:33:32;96050.19;;;17.68;100.00
8717;BME280;4395;48.554;8.820;2023-07-13T05:35:35;96050.31;;;17.58;100.00
8717;BME280;4395;48.554;8.820;2023-07-13T05:37:37;96055.44;;;17.60;100.00
8717;BME280;4395;48.554;8.820;2023-07-13T05:39:40;96056.53;;;17.59;100.00
8717;BME280;4395;48.554;8.820;2023-07-13T05:41:43;96054.72;;;17.54;100.00
8717;BME280;4395;48.554;8.820;2023-07-13T05:43:46;96059.84;;;17.56;100.00
8717;BME280;4395;48.554;8.820;2023-07-13T05:45:52;96069.25;;;17.63;100.00
8717;BME280;4395;48.554;8.820;2023-07-13T05:47:55;96070.31;;;17.67;100.00
8717;BME280;4395;48.554;8.820;2023-07-13T05:49:58;96079.66;;;17.80;100.00
8717;BME280;4395;48.554;8.820;2023-07-13T05:52:00;96075.31;;;17.79;100.00
8717;BME280;4395;48.554;8.820;2023-07-13T05:54:02;96080.25;;;17.77;100.00
8717;BME280;4395;48.554;8.820;2023-07-13T05:56:05;96073.91;;;17.82;100.00
8717;BME280;4395;48.554;8.820;2023-07-13T05:58:08;96082.97;;;17.96;100.00
8717;BME280;4395;48.554;8.820;2023-07-13T06:00:12;96088.09;;;18.16;100.00
8717;BME280;4395;48.554;8.820;2023-07-13T06:02:16;96078.09;;;18.30;100.00
8717;BME280;4395;48.554;8.820;2023-07-13T06:04:19;96080.13;;;18.39;100.00
8717;BME280;4395;48.554;8.820;2023-07-13T06:06:23;96086.59;;;18.61;100.00
8717;BME280;4395;48.554;8.820;2023-07-13T06:08:25;96091.97;;;18.80;100.00
8717;BME280;4395;48.554;8.820;2023-07-13T06:10:27;96092.00;;;19.08;100.00
8717;BME280;4395;48.554;8.820;2023-07-13T06:12:30;96093.44;;;19.19;100.00
8717;BME280;4395;48.554;8.820;2023-07-13T06:14:33;96082.53;;;19.19;100.00
8717;BME280;4395;48.554;8.820;2023-07-13T06:16:36;96084.16;;;19.34;100.00
8717;BME280;4395;48.554;8.820;2023-07-13T06:18:40;96088.56;;;19.43;99.03
8717;BME280;4395;48.554;8.820;2023-07-13T06:20:43;96083.75;;;19.40;95.66
8717;BME280;4395;48.554;8.820;2023-07-13T06:22:45;96098.97;;;19.27;90.46
8717;BME280;4395;48.554;8.820;2023-07-13T06:24:48;96108.25;;;19.13;88.85
8717;BME280;4395;48.554;8.820;2023-07-13T06:26:51;96038.94;;;18.91;81.19
8717;BME280;4395;48.554;8.820;2023-07-13T06:28:54;96102.09;;;19.48;76.30
8717;BME280;4395;48.554;8.820;2023-07-13T06:30:57;96104.16;;;19.56;75.61
8717;BME280;4395;48.554;8.820;2023-07-13T06:32:59;96107.06;;;19.74;79.47
8717;BME280;4395;48.554;8.820;2023-07-13T06:35:05;96105.38;;;20.00;78.08
8717;BME280;4395;48.554;8.820;2023-07-13T06:37:08;96106.88;;;20.06;76.96
8717;BME280;4395;48.554;8.820;2023-07-13T06:39:11;96108.13;;;20.22;73.78
8717;BME280;4395;48.554;8.820;2023-07-13T06:41:13;96106.66;;;19.67;75.15
8717;BME280;4395;48.554;8.820;2023-07-13T06:43:16;96109.94;;;19.91;75.26
8717;BME280;4395;48.554;8.820;2023-07-13T06:45:19;96104.22;;;20.15;75.78
8717;BME280;4395;48.554;8.820;2023-07-13T06:47:22;96107.19;;;20.41;73.63
8717;BME280;4395;48.554;8.820;2023-07-13T06:49:25;96103.97;;;20.39;75.06
8717;BME280;4395;48.554;8.820;2023-07-13T06:51:28;96104.34;;;20.46;76.08
8717;BME280;4395;48.554;8.820;2023-07-13T06:53:31;96113.06;;;20.79;70.17
8717;BME280;4395;48.554;8.820;2023-07-13T06:55:34;96118.78;;;20.91;68.47
8717;BME280;4395;48.554;8.820;2023-07-13T06:57:37;96117.84;;;20.96;68.26
8717;BME280;4395;48.554;8.820;2023-07-13T06:59:39;96115.88;;;20.88;68.21
8717;BME280;4395;48.554;8.820;2023-07-13T07:01:42;96120.94;;;21.03;66.90
8717;BME280;4395;48.554;8.820;2023-07-13T07:03:45;96119.47;;;20.97;66.80
8717;BME280;4395;48.554;8.820;2023-07-13T07:05:48;96123.38;;;21.04;69.01
8717;BME280;4395;48.554;8.820;2023-07-13T07:07:54;96114.09;;;21.14;69.10
8717;BME280;4395;48.554;8.820;2023-07-13T07:09:58;96112.09;;;21.28;68.36
8717;BME280;4395;48.554;8.820;2023-07-13T07:12:02;96118.63;;;21.58;65.93
8717;BME280;4395;48.554;8.820;2023-07-13T07:14:05;96116.34;;;21.43;65.73
8717;BME280;4395;48.554;8.820;2023-07-13T07:16:08;96124.81;;;20.57;67.45
8717;BME280;4395;48.554;8.820;2023-07-13T07:18:11;96120.81;;;21.08;66.49
8717;BME280;4395;48.554;8.820;2023-07-13T07:20:13;96118.41;;;21.37;63.40
8717;BME280;4395;48.554;8.820;2023-07-13T07:22:16;96113.66;;;20.90;67.15
8717;BME280;4395;48.554;8.820;2023-07-13T07:24:20;96117.69;;;21.23;63.03
8717;BME280;4395;48.554;8.820;2023-07-13T07:26:23;96111.31;;;21.36;62.54
8717;BME280;4395;48.554;8.820;2023-07-13T07:28:30;96117.69;;;21.23;60.83
8717;BME280;4395;48.554;8.820;2023-07-13T07:30:36;96110.47;;;21.67;59.49
8717;BME280;4395;48.554;8.820;2023-07-13T07:32:42;96105.19;;;21.88;54.60
8717;BME280;4395;48.554;8.820;2023-07-13T07:34:48;96118.69;;;21.27;57.00
8717;BME280;4395;48.554;8.820;2023-07-13T07:36:51;96120.91;;;20.72;56.71
8717;BME280;4395;48.554;8.820;2023-07-13T07:38:56;96122.88;;;21.02;54.28
8717;BME280;4395;48.554;8.820;2023-07-13T07:41:02;96111.94;;;21.02;54.65
8717;BME280;4395;48.554;8.820;2023-07-13T07:43:09;96111.25;;;21.59;51.49
8717;BME280;4395;48.554;8.820;2023-07-13T07:45:13;96115.13;;;21.75;51.76
8717;BME280;4395;48.554;8.820;2023-07-13T07:47:15;96110.19;;;21.94;51.59
8717;BME280;4395;48.554;8.820;2023-07-13T07:49:18;96113.91;;;21.98;51.68
8717;BME280;4395;48.554;8.820;2023-07-13T07:51:21;96118.78;;;22.19;50.04
8717;BME280;4395;48.554;8.820;2023-07-13T07:53:24;96113.31;;;22.19;51.22
8717;BME280;4395;48.554;8.820;2023-07-13T07:55:26;96119.03;;;21.91;52.11
8717;BME280;4395;48.554;8.820;2023-07-13T07:57:35;96096.56;;;22.29;50.76
8717;BME280;4395;48.554;8.820;2023-07-13T07:59:40;96123.91;;;22.03;51.21
8717;BME280;4395;48.554;8.820;2023-07-13T08:01:46;96120.84;;;22.04;52.60
8717;BME280;4395;48.554;8.820;2023-07-13T08:03:54;96120.56;;;22.32;52.49
8717;BME280;4395;48.554;8.820;2023-07-13T08:06:00;96125.84;;;22.02;51.68
8717;BME280;4395;48.554;8.820;2023-07-13T08:08:24;96126.50;;;22.08;52.75
8717;BME280;4395;48.554;8.820;2023-07-13T08:10:27;96128.28;;;22.12;52.13
8717;BME280;4395;48.554;8.820;2023-07-13T08:12:29;96118.13;;;22.30;52.19
8717;BME280;4395;48.554;8.820;2023-07-13T08:14:36;96121.19;;;22.29;50.66
8717;BME280;4395;48.554;8.820;2023-07-13T08:16:53;96129.72;;;22.62;49.40
8717;BME280;4395;48.554;8.820;2023-07-13T08:18:56;96116.28;;;23.12;49.70
8717;BME280;4395;48.554;8.820;2023-07-13T08:21:03;96121.22;;;23.27;46.41
8717;BME280;4395;48.554;8.820;2023-07-13T08:23:06;96112.78;;;21.99;49.79
8717;BME280;4395;48.554;8.820;2023-07-13T08:25:09;96124.56;;;22.08;50.40
8717;BME280;4395;48.554;8.820;2023-07-13T08:27:12;96113.63;;;22.26;49.58
8717;BME280;4395;48.554;8.820;2023-07-13T08:29:15;96112.34;;;22.49;48.29
8717;BME280;4395;48.554;8.820;2023-07-13T08:31:20;96117.13;;;22.95;47.77
8717;BME280;4395;48.554;8.820;2023-07-13T08:33:22;96109.31;;;23.23;45.42
8717;BME280;4395;48.554;8.820;2023-07-13T08:35:26;96117.94;;;23.51;46.38
8717;BME280;4395;48.554;8.820;2023-07-13T08:37:29;96116.50;;;22.90;46.68
8717;BME280;4395;48.554;8.820;2023-07-13T08:39:32;96118.59;;;22.93;46.28
8717;BME280;4395;48.554;8.820;2023-07-13T08:41:37;96119.03;;;23.03;45.98
8717;BME280;4395;48.554;8.820;2023-07-13T08:43:40;96127.91;;;23.09;45.37
8717;BME280;4395;48.554;8.820;2023-07-13T08:45:50;96120.53;;;22.92;44.35
8717;BME280;4395;48.554;8.820;2023-07-13T08:48:00;96119.50;;;23.69;41.84
8717;BME280;4395;48.554;8.820;2023-07-13T08:50:05;96110.59;;;23.72;44.64
8717;BME280;4395;48.554;8.820;2023-07-13T08:52:32;96123.69;;;23.96;43.74
8717;BME280;4395;48.554;8.820;2023-07-13T08:54:39;96096.06;;;23.72;45.45
8717;BME280;4395;48.554;8.820;2023-07-13T08:56:44;96117.56;;;23.70;44.02
8717;BME280;4395;48.554;8.820;2023-07-13T08:58:50;96119.81;;;23.97;43.58
8717;BME280;4395;48.554;8.820;2023-07-13T09:01:04;96121.06;;;24.50;42.11
8717;BME280;4395;48.554;8.820;2023-07-13T09:03:22;96126.16;;;23.89;43.58
8717;BME280;4395;48.554;8.820;2023-07-13T09:05:28;96115.69;;;24.54;42.70
8717;BME280;4395;48.554;8.820;2023-07-13T09:07:40;96126.78;;;24.99;42.57
8717;BME280;4395;48.554;8.820;2023-07-13T09:09:55;96118.13;;;24.88;41.63
8717;BME280;4395;48.554;8.820;2023-07-13T09:12:07;96123.78;;;25.37;40.05
8717;BME280;4395;48.554;8.820;2023-07-13T09:14:31;96116.09;;;25.43;39.54
8717;BME280;4395;48.554;8.820;2023-07-13T09:16:35;96121.03;;;25.49;39.87
8717;BME280;4395;48.554;8.820;2023-07-13T09:18:44;96115.44;;;25.94;39.06
8717;BME280;4395;48.554;8.820;2023-07-13T09:20:50;96117.38;;;25.00;40.08
8717;BME280;4395;48.554;8.820;2023-07-13T09:22:53;96107.59;;;24.57;41.57
8717;BME280;4395;48.554;8.820;2023-07-13T09:25:03;96121.78;;;25.13;40.01
8717;BME280;4395;48.554;8.820;2023-07-13T09:27:15;96113.31;;;25.30;40.23
8717;BME280;4395;48.554;8.820;2023-07-13T09:29:28;96108.28;;;25.32;40.36
8717;BME280;4395;48.554;8.820;2023-07-13T09:31:34;96119.06;;;25.38;40.49
8717;BME280;4395;48.554;8.820;2023-07-13T09:33:39;96106.47;;;25.49;39.36
8717;BME280;4395;48.554;8.820;2023-07-13T09:35:43;96122.06;;;25.45;39.43
8717;BME280;4395;48.554;8.820;2023-07-13T09:37:46;96108.53;;;25.64;38.81
8717;BME280;4395;48.554;8.820;2023-07-13T09:39:50;96130.59;;;25.76;40.31
8717;BME280;4395;48.554;8.820;2023-07-13T09:41:58;96116.50;;;26.02;38.57
8717;BME280;4395;48.554;8.820;2023-07-13T09:44:08;96113.81;;;26.42;38.34
8717;BME280;4395;48.554;8.820;2023-07-13T09:46:20;96114.97;;;26.17;39.82
8717;BME280;4395;48.554;8.820;2023-07-13T09:48:24;96113.38;;;25.91;39.24
8717;BME280;4395;48.554;8.820;2023-07-13T09:50:27;96111.44;;;25.92;39.40
8717;BME280;4395;48.554;8.820;2023-07-13T09:52:41;96121.69;;;25.34;39.55
8717;BME280;4395;48.554;8.820;2023-07-13T09:54:51;96122.03;;;25.20;40.61
8717;BME280;4395;48.554;8.820;2023-07-13T09:57:01;96117.69;;;25.31;40.50
8717;BME280;4395;48.554;8.820;2023-07-13T09:59:04;96123.19;;;25.31;40.72
8717;BME280;4395;48.554;8.820;2023-07-13T10:01:07;96106.59;;;24.95;42.12
8717;BME280;4395;48.554;8.820;2023-07-13T10:03:17;96122.06;;;25.57;40.56
8717;BME280;4395;48.554;8.820;2023-07-13T10:05:19;96120.03;;;25.66;39.33
8717;BME280;4395;48.554;8.820;2023-07-13T10:07:23;96113.13;;;26.33;39.00
8717;BME280;4395;48.554;8.820;2023-07-13T10:09:32;96108.03;;;26.47;38.33
8717;BME280;4395;48.554;8.820;2023-07-13T10:11:36;96105.28;;;26.47;37.47
8717;BME280;4395;48.554;8.820;2023-07-13T10:13:42;96109.91;;;26.43;37.57
8717;BME280;4395;48.554;8.820;2023-07-13T10:15:45;96115.06;;;26.73;38.04
8717;BME280;4395;48.554;8.820;2023-07-13T10:17:50;96112.91;;;26.38;37.94
8717;BME280;4395;48.554;8.820;2023-07-13T10:19:54;96102.13;;;26.33;37.76
8717;BME280;4395;48.554;8.820;2023-07-13T10:22:00;96109.00;;;26.27;36.51
8717;BME280;4395;48.554;8.820;2023-07-13T10:24:11;96115.41;;;25.58;37.00
8717;BME280;4395;48.554;8.820;2023-07-13T10:26:20;96111.75;;;25.54;37.80
8717;BME280;4395;48.554;8.820;2023-07-13T10:28:27;96122.97;;;25.49;35.73
8717;BME280;4395;48.554;8.820;2023-07-13T10:30:35;96108.25;;;25.08;36.35
8717;BME280;4395;48.554;8.820;2023-07-13T10:32:42;96111.16;;;24.91;36.19
8717;BME280;4395;48.554;8.820;2023-07-13T10:34:46;96111.03;;;25.20;36.29
8717;BME280;4395;48.554;8.820;2023-07-13T10:36:51;96102.34;;;26.16;34.80
8717;BME280;4395;48.554;8.820;2023-07-13T10:38:56;96106.22;;;26.39;34.63
8717;BME280;4395;48.554;8.820;2023-07-13T10:41:02;96099.22;;;26.70;33.75
8717;BME280;4395;48.554;8.820;2023-07-13T10:43:14;96113.63;;;26.63;35.52
8717;BME280;4395;48.554;8.820;2023-07-13T10:45:21;96110.66;;;26.04;35.36
8717;BME280;4395;48.554;8.820;2023-07-13T10:47:25;96103.97;;;26.17;35.20
8717;BME280;4395;48.554;8.820;2023-07-13T10:49:31;96108.66;;;26.28;35.06
8717;BME280;4395;48.554;8.820;2023-07-13T10:51:34;96098.53;;;26.73;34.08
8717;BME280;4395;48.554;8.820;2023-07-13T10:53:38;96098.84;;;26.55;33.57
8717;BME280;4395;48.554;8.820;2023-07-13T10:55:57;96101.44;;;26.92;33.52
8717;BME280;4395;48.554;8.820;2023-07-13T10:58:03;96094.06;;;26.96;33.76
8717;BME280;4395;48.554;8.820;2023-07-13T11:00:17;96099.97;;;26.54;33.76
8717;BME280;4395;48.554;8.820;2023-07-13T11:02:25;96093.41;;;27.31;31.78
8717;BME280;4395;48.554;8.820;2023-07-13T11:04:39;96092.19;;;27.75;31.20
8717;BME280;4395;48.554;8.820;2023-07-13T11:06:47;96107.34;;;27.06;32.20
8717;BME280;4395;48.554;8.820;2023-07-13T11:08:53;96106.00;;;26.44;31.53
8717;BME280;4395;48.554;8.820;2023-07-13T11:10:57;96105.25;;;27.15;32.02
8717;BME280;4395;48.554;8.820;2023-07-13T11:13:00;96092.16;;;27.60;31.51
8717;BME280;4395;48.554;8.820;2023-07-13T11:15:11;96087.78;;;27.11;30.92